INDIA METEOROLOGICAL DEPARTMENT, R.M.C. NEW DELHI
Dated:24-06-2019
METARS


Agartala   
VEAT 241100Z 25002KT 6000 FEW020 SCT025 35/28 Q1002 NOSIG=
Ahmedabad  
VAAH 241100Z 19002KT 3500 HZ SCT020 BKN080 33/24 Q1001 NOSIG=
Allahabad  
VEAB 241030Z 14010KT 6000 FEW025 FEW030CB SCT090 38/23 Q1000 TEMPO TS=
Aurangabad 
VAAU 241000Z 05004KT 6000 SCT020 SCT025 BKN100 32/23 Q1006 NOSIG=
Bangalore  
VOBL 241100Z 20008KT 170V240 6000 SCT012 SCT018 30/19 Q1008 NOSIG=
Baroda     
VABO 241100Z 27005KT 6000 SCT020 SCT080 36/26 Q1000 NOSIG=
Bhaunagar  
VABV 241100Z 17010KT 5000 FU FEW025 SCT080 35/25 Q1001=
Bhopal     
VABP 241100Z 20012KT 6000 FEW025 SCT030 CB BKN100 37/21 Q1002 NOSIG=
Bhubaneswar
VEBS 241100Z 18010KT 7000 FEW020 33/26 Q1002 NOSIG=
Chennai    
VOMM 241100Z 22005KT 6000 FEW020 SCT100 37/23 Q1002 NOSIG=
Coimbatore 
VOCB 241100Z 23010G20KT 6000 FEW015 TCU018 32/20 Q1006 NOSIG=
Colombo    
VCBI 241110Z 24010KT 210V290 9999 SCT017 FEW020CB 31/26 Q1006 NOSIG RMK SE/S=
Delhi      
VIDP 241100Z 08008G18KT 3500 HZ SCT035 FEW040CB BKN100 33/24 Q1002 TEMPO 11015G25KT 1500 TSRA =
Dehradun   
VIDN 241100Z 23005KT 6000 SCT030 SCT080 33/24 Q1004=
Gauhati    
VEGT 241100Z 25012KT 5000 HZ FEW020 SCT100 37/27 Q1000 NOSIG=
Gaya       
VEGY 241100Z 22004KT 4000 HZ FEW020 SCT025 38/23 Q1001 NOSIG=
Gaggal     
VIGG 241000Z 25004KT 5000 HZ SCT035 FEW040CB BKN080 29/23 Q1009=
Goa        
VOGO 241030Z 24009 5000 -DZ FEW010 SCT014 BKN100 27/25 Q1004 TEMPO 4000 RA=
Fursatganj 
VERB 241000Z 05003KT 2500 -RA SCT020 OVC090 35/25 Q0999=
Hyderabad  
VOHS 241100Z 24005KT 6000 SCT015 SCT025 33/24 Q1005 NOSIG=
Imphal     
VEIM 241100Z 27008KT 5000 HZ SCT018 SCT100 30/20 Q1006 NOSIG=
Indore     
VAID 241100Z 25006KT 5000 HZ FEW020 SCT025 35/22 Q1003 NOSIG=
Jabalpur   
VAJB 241030Z 22012KT 4000 HZ FEW020 SCT030 35/22 1004=
Jaipur     
VIJP 241100Z 26010KT 3000 BLDU SCT035 FEW040CB 37/20 Q1001 TEMPO 1500 TSRA=
Kochi      
VOCI 241100Z 28010KT 5000 HZ SCT015 SCT020 31/25 Q1005 NOSIG=
Kolkata    
VECC 241100Z 15009KT 3200 -RA HZ SCT018 SCT025 BKN090 31/29 Q1002 TEMPO 1500 RA=
Kozhikode  
VOCL 241100Z 32008KT 6000 FEW012 SCT018 FEW025TCU 30/26 Q1005 NOSIG=
Lucknow    
VILK 241100Z 10010KT 4000 HZ FEW020 FEW030CB SCT100 37/23 Q1001 NOSIG=
Ludhiana   
VILD 241100Z 06015KT 4000 HZ SCT025CB OVC080 29/22 Q1004 =
Madurai    
VOMD 241100Z 34015KT 6000 SCT020 FEW025CB 37/22 Q1003 NOSIG=
Mohanbari  
VEMN 241100Z 06009G18KT 4000 BR SCT020 FEW025CB BKN100 29/26 Q1002 NOSIG=
Mumbai     
VABB 241100Z 14003KT 3500 HZ SCT018 FEW025TCU BKN090 30/25 Q1003 NOSIG=
Nagpur     
VANP 241100Z 15002KT 4000 HZ FEW020 SCT025 35/23 Q1002 NOSIG=
Patna      
VEPT 241100Z 11006KT 5000 HZ SCT018 SCT025 38/23 Q0999 NOSIG=
Raipur     
VERP 241100Z 13002KT 6000 FEW025 35/21 Q1003 NOSIG=
Safdarjung 
VIDD 241100Z 05010KT 3500 HZ SCT035 FEW040CB BKN100 34/25 Q1001 TEMPO 1500 TSRA=
Surat     
VASU 241100Z 21003KT 6000 SCT020 SCT080 33/23 Q1002 NOSIG=
Ranchi     
VERC 241100Z 20004KT 4000 HZ SCT020 SCT025 33/25 Q1006 NOSIG=
Trichy     
VOTR 241100Z 27012KT 8000 SCT016 40/18 Q1001 NOSIG=
Trivandrum 
VOTV 241100Z 32009KT 5000 HZ FEW018 30/25 Q1005 NOSIG=
Udaipur    
VAUD 241100Z 32009KT 1500 BRA SCT025 BKN030 OVC080 FEW035CB 28/27 Q1004 NOSIG=
Varanasi   
VEBN 241100Z 12006KT 5000 HZ FEW025 37/23 Q1000 NOSIG=
Vizag      
VOVZ 241100Z 18008KT 6000 FEW018 FEW025CB 33/24 Q1003 NOSIG =
Male       
VRMM 241100Z 28016KT 9999 FEW019 31/26 Q1007 NOSIG=
Gan        
VRMG 241100Z VRB01KT 9999 FEW018 FEW019CB SCT270 31/25 Q1008 CB SE NOSIG=
Kathmandu  
VNKT 241100Z NIL=
Dhaka      
VGHS 241100Z 26007KT 4000 HZ FEW015 SCT025 36/25 Q1002 NOSIG=
Colombo    
VCBI 241110Z 24010KT 210V290 9999 SCT017 FEW020CB 31/26 Q1006 NOSIG RMK SE/S=
Karachi    
OPKC 241055Z 22010KT 6000 SCT020 34/24 Q1001 NOSIG=
Lahore     
OPLA 241055Z 35006KT 2000 BR SCT040 BKN100 28/24 Q1003 TEMPO 33020G35KT 1500 TSRA FEW030CB RMK A29.63=
Gorakhpur  
VEGK 241030Z 12007KT 6000 SCT030 37/26 Q1001 NOSIG=
Agra       
VIAG 241030Z 03015KT 5000 DU FEW020 SCT030 FEW035CB 36/25 Q1001 TEMPO TS/BLDU 02015G25KT=
Bagdogra   
VEBD 241030Z 18004KT 6000 SCT025 SCT030 FEW030TCU 35/26 Q1001 TEMPO TSRA=
Gwalior    
VIGR 241030Z 03007KT 6000 FEW025 SCT030 FEW040TCU 37/23 Q1000 TEMPO TS=
Pune       
VAPO 241030Z 04002KT 3000 -RA SCT020 SCT030 FEW030CB BKN090 24/23 Q1007 BECMG 5000=
Jamnagar   
VAJM 241030Z 32008KT 6000 FEW020 FEW030TCU SCT040 36/24 Q1001 NOSIG=